createdAt,value
2019-01-20T00:00:42.297Z,72.72
2019-01-20T00:01:42.273Z,71.78
2019-01-20T00:02:42.267Z,71.78
2019-01-20T00:03:42.254Z,72.23
2019-01-20T00:04:42.241Z,72.41
2019-01-20T00:05:42.243Z,72.44
2019-01-20T00:06:42.221Z,72.82
2019-01-20T00:07:42.210Z,72.54
2019-01-20T00:08:42.197Z,72.33
2019-01-20T00:09:42.186Z,72.44
2019-01-20T00:10:42.190Z,72.54
2019-01-20T00:11:42.167Z,73.03
2019-01-20T00:12:42.158Z,72.85
2019-01-20T00:13:42.144Z,72.85
2019-01-20T00:14:42.135Z,73.07
2019-01-20T00:15:42.141Z,73.17
2019-01-20T00:16:42.114Z,73.17
2019-01-20T00:17:42.101Z,73.27
2019-01-20T00:18:42.092Z,73.07
2019-01-20T00:19:42.081Z,73.38
2019-01-20T00:20:42.081Z,73.58
2019-01-20T00:21:42.060Z,73.90
2019-01-20T00:22:42.050Z,73.72
2019-01-20T00:23:42.040Z,74.45
2019-01-20T00:24:42.025Z,74.21
2019-01-20T00:25:42.029Z,74.84
2019-01-20T00:26:42.005Z,74.52
2019-01-20T00:27:41.992Z,74.45
2019-01-20T00:28:41.987Z,73.62
2019-01-20T00:29:41.971Z,73.17
2019-01-20T00:30:41.976Z,73.62
2019-01-20T00:31:41.949Z,73.52
2019-01-20T00:32:41.941Z,73.38
2019-01-20T00:33:41.930Z,73.17
2019-01-20T00:34:41.917Z,73.07
2019-01-20T00:35:41.952Z,73.27
2019-01-20T00:36:41.896Z,73.30
2019-01-20T00:37:41.888Z,73.58
2019-01-20T00:38:41.874Z,73.79
2019-01-20T00:39:41.867Z,73.27
2019-01-20T00:40:41.852Z,73.07
2019-01-20T00:41:42.689Z,73.17
2019-01-20T00:42:41.833Z,73.38
2019-01-20T00:43:41.823Z,72.96
2019-01-20T00:44:41.833Z,72.54
2019-01-20T00:45:41.801Z,72.64
2019-01-20T00:46:41.803Z,73.10
2019-01-20T00:47:41.779Z,72.85
2019-01-20T00:48:41.768Z,72.89
2019-01-20T00:49:41.756Z,72.75
2019-01-20T00:50:41.749Z,72.75
2019-01-20T00:51:41.752Z,72.96
2019-01-20T00:52:41.723Z,73.17
2019-01-20T00:53:41.713Z,72.54
2019-01-20T00:54:41.705Z,72.23
2019-01-20T00:55:41.693Z,72.54
2019-01-20T00:56:41.691Z,72.75
2019-01-20T00:57:41.670Z,72.54
2019-01-20T00:58:41.660Z,72.44
2019-01-20T00:59:41.648Z,71.60
2019-01-20T01:00:41.639Z,70.87
2019-01-20T01:01:41.641Z,71.60
2019-01-20T01:02:41.617Z,72.23
2019-01-20T01:03:41.605Z,71.70
2019-01-20T01:04:41.594Z,71.29
2019-01-20T01:05:41.585Z,72.13
2019-01-20T01:06:41.583Z,72.54
2019-01-20T01:07:41.582Z,71.91
2019-01-20T01:08:41.552Z,72.02
2019-01-20T01:09:41.542Z,71.91
2019-01-20T01:10:41.530Z,72.33
2019-01-20T01:11:41.531Z,72.02
2019-01-20T01:12:41.510Z,72.33
2019-01-20T01:13:41.500Z,72.44
2019-01-20T01:14:41.487Z,72.75
2019-01-20T01:15:41.476Z,72.75
2019-01-20T01:16:41.498Z,73.07
2019-01-20T01:17:41.458Z,73.38
2019-01-20T01:18:41.444Z,73.38
2019-01-20T01:19:41.441Z,73.17
2019-01-20T01:20:41.424Z,72.85
2019-01-20T01:21:41.412Z,72.47
2019-01-20T01:22:41.412Z,72.99
2019-01-20T01:23:41.391Z,73.10
2019-01-20T01:24:41.380Z,72.99
2019-01-20T01:25:41.373Z,72.58
2019-01-20T01:26:41.363Z,72.47
2019-01-20T01:27:41.362Z,72.58
2019-01-20T01:28:41.340Z,72.58
2019-01-20T01:29:41.329Z,72.47
2019-01-20T01:30:41.319Z,72.58
2019-01-20T01:31:41.310Z,72.47
2019-01-20T01:32:41.311Z,72.36
2019-01-20T01:33:41.290Z,72.58
2019-01-20T01:34:41.281Z,72.68
2019-01-20T01:35:41.266Z,72.05
2019-01-20T01:36:41.257Z,72.78
2019-01-20T01:37:41.255Z,72.68
2019-01-20T01:38:41.235Z,71.84
2019-01-20T01:39:41.224Z,72.26
2019-01-20T01:40:41.214Z,71.84
2019-01-20T01:41:41.205Z,72.26
2019-01-20T01:42:41.203Z,71.95
2019-01-20T01:43:41.182Z,72.47
2019-01-20T01:44:41.170Z,72.36
2019-01-20T01:45:41.167Z,71.53
2019-01-20T01:46:41.149Z,72.47
2019-01-20T01:47:41.153Z,71.95
2019-01-20T01:48:41.131Z,72.36
2019-01-20T01:49:41.119Z,72.36
2019-01-20T01:50:41.108Z,72.36
2019-01-20T01:51:41.097Z,72.36
2019-01-20T01:52:41.097Z,72.16
2019-01-20T01:53:41.076Z,72.05
2019-01-20T01:54:41.065Z,71.95
2019-01-20T01:55:41.055Z,72.58
2019-01-20T01:56:41.042Z,72.26
2019-01-20T01:57:41.062Z,71.64
2019-01-20T01:58:41.023Z,72.36
2019-01-20T01:59:41.011Z,72.47
2019-01-20T02:00:41.001Z,72.05
2019-01-20T02:01:40.990Z,71.95
2019-01-20T02:02:40.977Z,71.95
2019-01-20T02:03:40.980Z,72.05
2019-01-20T02:04:40.958Z,71.74
2019-01-20T02:05:40.946Z,72.36
2019-01-20T02:06:40.939Z,71.95
2019-01-20T02:07:40.927Z,71.77
2019-01-20T02:08:40.932Z,71.11
2019-01-20T02:09:40.904Z,72.05
2019-01-20T02:10:40.894Z,71.32
2019-01-20T02:11:46.749Z,71.32
2019-01-20T02:12:41.872Z,72.16
2019-01-20T02:13:40.875Z,72.05
2019-01-20T02:14:40.853Z,72.05
2019-01-20T02:15:40.843Z,72.16
2019-01-20T02:16:40.838Z,71.95
2019-01-20T02:17:40.821Z,72.36
2019-01-20T02:18:40.821Z,71.88
2019-01-20T02:19:40.800Z,72.19
2019-01-20T02:20:40.789Z,72.81
2019-01-20T02:21:40.779Z,72.50
2019-01-20T02:22:40.770Z,72.92
2019-01-20T02:23:40.774Z,72.92
2019-01-20T02:24:40.749Z,72.81
2019-01-20T02:25:40.737Z,72.50
2019-01-20T02:26:40.727Z,72.50
2019-01-20T02:27:40.719Z,73.13
2019-01-20T02:28:45.854Z,73.13
2019-01-20T02:29:40.697Z,73.24
2019-01-20T02:30:40.688Z,72.92
2019-01-20T02:31:40.676Z,72.92
2019-01-20T02:32:40.665Z,73.24
2019-01-20T02:33:40.668Z,73.13
2019-01-20T02:34:40.644Z,72.75
2019-01-20T02:35:40.640Z,73.16
2019-01-20T02:36:40.624Z,73.27
2019-01-20T02:37:40.615Z,73.24
2019-01-20T02:38:40.630Z,73.27
2019-01-20T02:39:40.621Z,73.16
2019-01-20T02:40:40.582Z,73.27
2019-01-20T02:41:40.578Z,73.16
2019-01-20T02:42:40.560Z,72.96
2019-01-20T02:43:40.550Z,72.64
2019-01-20T02:44:40.553Z,72.43
2019-01-20T02:45:40.605Z,72.75
2019-01-20T02:46:40.519Z,72.85
2019-01-20T02:47:40.510Z,72.92
2019-01-20T02:48:40.505Z,72.96
2019-01-20T02:49:40.501Z,73.55
2019-01-20T02:50:40.480Z,73.79
2019-01-20T02:51:40.467Z,73.79
2019-01-20T02:52:40.459Z,73.90
2019-01-20T02:53:40.447Z,73.90
2019-01-20T02:54:40.451Z,74.31
2019-01-20T02:55:40.426Z,74.21
2019-01-20T02:56:40.416Z,74.31
2019-01-20T02:57:40.412Z,74.94
2019-01-20T02:58:40.396Z,74.24
2019-01-20T02:59:40.394Z,74.98
2019-01-20T03:00:40.372Z,74.10
2019-01-20T03:01:40.363Z,73.79
2019-01-20T03:02:40.351Z,74.35
2019-01-20T03:03:40.345Z,74.24
2019-01-20T03:04:40.343Z,74.14
2019-01-20T03:05:40.319Z,74.04
2019-01-20T03:06:40.317Z,73.93
2019-01-20T03:07:40.299Z,73.51
2019-01-20T03:08:40.289Z,73.30
2019-01-20T03:09:40.288Z,73.58
2019-01-20T03:10:40.267Z,74.10
2019-01-20T03:11:40.257Z,74.00
2019-01-20T03:12:40.256Z,74.35
2019-01-20T03:13:40.236Z,74.24
2019-01-20T03:14:40.238Z,74.45
2019-01-20T03:15:40.215Z,74.87
2019-01-20T03:16:40.203Z,74.87
2019-01-20T03:17:40.193Z,75.53
2019-01-20T03:18:40.186Z,75.32
2019-01-20T03:19:40.186Z,75.01
2019-01-20T03:20:40.168Z,75.11
2019-01-20T03:21:40.153Z,75.53
2019-01-20T03:22:40.140Z,75.43
2019-01-20T03:23:40.135Z,75.63
2019-01-20T03:24:40.133Z,75.84
2019-01-20T03:25:40.110Z,75.98
2019-01-20T03:26:40.100Z,75.57
2019-01-20T03:27:40.090Z,75.57
2019-01-20T03:28:40.077Z,76.51
2019-01-20T03:29:40.080Z,75.53
2019-01-20T03:30:40.063Z,75.57
2019-01-20T03:31:40.049Z,75.43
2019-01-20T03:32:40.038Z,75.57
2019-01-20T03:33:40.026Z,75.57
2019-01-20T03:34:40.025Z,75.46
2019-01-20T03:35:40.004Z,75.98
2019-01-20T03:36:39.994Z,75.78
2019-01-20T03:37:39.983Z,76.30
2019-01-20T03:38:39.972Z,76.61
2019-01-20T03:39:39.971Z,76.09
2019-01-20T03:40:39.953Z,76.72
2019-01-20T03:41:39.941Z,76.61
2019-01-20T03:42:39.932Z,75.35
2019-01-20T03:43:39.927Z,74.94
2019-01-20T03:44:39.920Z,74.94
2019-01-20T03:45:39.900Z,74.94
2019-01-20T03:46:39.889Z,74.69
2019-01-20T03:47:39.878Z,75.35
2019-01-20T03:48:39.868Z,74.94
2019-01-20T03:49:39.870Z,74.94
2019-01-20T03:50:39.846Z,74.94
2019-01-20T03:51:39.837Z,75.15
2019-01-20T03:52:39.825Z,74.94
2019-01-20T03:53:39.827Z,74.62
2019-01-20T03:54:39.817Z,73.96
2019-01-20T03:55:39.796Z,73.54
2019-01-20T03:56:39.786Z,74.10
2019-01-20T03:57:39.776Z,74.27
2019-01-20T03:58:39.764Z,74.41
2019-01-20T03:59:39.770Z,73.99
2019-01-20T04:00:39.743Z,74.07
2019-01-20T04:01:39.731Z,74.38
2019-01-20T04:02:39.728Z,73.75
2019-01-20T04:03:39.711Z,74.41
2019-01-20T04:04:39.713Z,73.99
2019-01-20T04:05:39.691Z,73.33
2019-01-20T04:06:39.687Z,73.44
2019-01-20T04:07:39.675Z,73.86
2019-01-20T04:08:39.661Z,73.96
2019-01-20T04:09:39.659Z,73.75
2019-01-20T04:10:39.639Z,74.07
2019-01-20T04:11:39.628Z,73.44
2019-01-20T04:12:39.621Z,73.23
2019-01-20T04:13:39.617Z,73.44
2019-01-20T04:14:39.609Z,73.23
2019-01-20T04:15:39.593Z,73.13
2019-01-20T04:16:39.596Z,73.44
2019-01-20T04:17:39.585Z,73.54
2019-01-20T04:18:39.556Z,73.44
2019-01-20T04:19:39.556Z,73.65
2019-01-20T04:20:39.536Z,73.54
2019-01-20T04:21:39.524Z,73.86
2019-01-20T04:22:39.512Z,74.07
2019-01-20T04:23:39.503Z,73.86
2019-01-20T04:24:39.505Z,73.96
2019-01-20T04:25:39.481Z,73.54
2019-01-20T04:26:39.481Z,73.86
2019-01-20T04:27:39.459Z,74.41
2019-01-20T04:28:39.467Z,74.21
2019-01-20T04:29:39.451Z,73.89
2019-01-20T04:30:39.441Z,74.07
2019-01-20T04:31:39.428Z,74.10
2019-01-20T04:32:39.409Z,73.86
2019-01-20T04:33:39.397Z,73.58
2019-01-20T04:34:39.397Z,73.44
2019-01-20T04:35:39.378Z,73.37
2019-01-20T04:36:39.367Z,73.99
2019-01-20T04:37:39.355Z,73.54
2019-01-20T04:38:39.344Z,73.68
2019-01-20T04:39:39.346Z,73.58
2019-01-20T04:40:39.324Z,73.26
2019-01-20T04:41:39.313Z,73.13
2019-01-20T04:42:39.301Z,73.58
2019-01-20T04:43:39.293Z,73.99
2019-01-20T04:44:39.293Z,73.58
2019-01-20T04:45:39.270Z,73.96
2019-01-20T04:46:39.261Z,73.75
2019-01-20T04:47:39.252Z,73.13
2019-01-20T04:48:39.238Z,73.16
2019-01-20T04:49:39.268Z,73.89
2019-01-20T04:50:39.219Z,73.86
2019-01-20T04:51:39.208Z,73.33
2019-01-20T04:52:39.200Z,73.26
2019-01-20T04:53:39.189Z,73.89
2019-01-20T04:54:39.265Z,73.16
2019-01-20T04:55:39.177Z,72.95
2019-01-20T04:56:39.157Z,73.47
2019-01-20T04:57:39.145Z,73.79
2019-01-20T04:58:39.134Z,73.68
2019-01-20T04:59:39.125Z,73.33
2019-01-20T05:00:39.128Z,73.33
2019-01-20T05:01:39.104Z,73.75
2019-01-20T05:02:39.094Z,73.44
2019-01-20T05:03:39.084Z,73.68
2019-01-20T05:04:39.071Z,73.68
2019-01-20T05:05:39.075Z,73.37
2019-01-20T05:06:39.051Z,73.58
2019-01-20T05:07:39.041Z,73.79
2019-01-20T05:08:39.031Z,73.68
2019-01-20T05:09:39.021Z,73.99
2019-01-20T05:10:39.021Z,73.37
2019-01-20T05:11:38.998Z,73.58
2019-01-20T05:12:38.989Z,73.47
2019-01-20T05:13:38.983Z,73.47
2019-01-20T05:14:38.973Z,73.33
2019-01-20T05:15:38.968Z,73.79
2019-01-20T05:16:38.946Z,73.26
2019-01-20T05:17:38.984Z,73.89
2019-01-20T05:18:38.925Z,73.68
2019-01-20T05:19:38.916Z,73.99
2019-01-20T05:20:38.921Z,73.89
2019-01-20T05:21:38.894Z,73.99
2019-01-20T05:22:38.890Z,74.10
2019-01-20T05:23:38.876Z,74.52
2019-01-20T05:24:38.865Z,74.45
2019-01-20T05:25:38.864Z,74.94
2019-01-20T05:26:38.844Z,75.39
2019-01-20T05:27:38.831Z,75.39
2019-01-20T05:28:38.822Z,75.08
2019-01-20T05:29:38.811Z,75.08
2019-01-20T05:30:38.812Z,75.18
2019-01-20T05:31:38.791Z,74.97
2019-01-20T05:32:38.781Z,75.92
2019-01-20T05:33:38.768Z,75.39
2019-01-20T05:34:38.766Z,75.01
2019-01-20T05:35:38.787Z,75.39
2019-01-20T05:36:38.739Z,75.29
2019-01-20T05:37:38.728Z,74.76
2019-01-20T05:38:38.718Z,74.97
2019-01-20T05:39:38.706Z,75.18
2019-01-20T05:40:38.694Z,75.92
2019-01-20T05:41:38.697Z,75.53
2019-01-20T05:42:46.119Z,75.18
2019-01-20T05:43:39.663Z,75.84
2019-01-20T05:44:38.657Z,75.84
2019-01-20T05:45:38.642Z,75.53
2019-01-20T05:46:38.644Z,75.32
2019-01-20T05:47:38.625Z,75.95
2019-01-20T05:48:38.618Z,75.60
2019-01-20T05:49:38.602Z,75.95
2019-01-20T05:50:38.591Z,75.01
2019-01-20T05:51:38.636Z,75.63
2019-01-20T05:52:38.572Z,75.53
2019-01-20T05:53:38.559Z,75.01
2019-01-20T05:54:38.549Z,75.32
2019-01-20T05:55:38.543Z,75.21
2019-01-20T05:56:38.528Z,75.32
2019-01-20T05:57:38.528Z,74.06
2019-01-20T05:58:38.507Z,74.69
2019-01-20T05:59:38.499Z,75.11
2019-01-20T06:00:38.488Z,74.58
2019-01-20T06:01:38.477Z,75.01
2019-01-20T06:02:38.498Z,74.80
2019-01-20T06:03:38.456Z,74.80
2019-01-20T06:04:38.445Z,75.11
2019-01-20T06:05:38.437Z,74.48
2019-01-20T06:06:38.426Z,74.06
2019-01-20T06:07:38.424Z,74.58
2019-01-20T06:08:38.403Z,74.34
2019-01-20T06:09:38.394Z,74.48
2019-01-20T06:10:38.383Z,74.58
2019-01-20T06:11:38.372Z,74.13
2019-01-20T06:12:38.374Z,74.45
2019-01-20T06:13:38.353Z,74.45
2019-01-20T06:14:38.344Z,75.01
2019-01-20T06:15:38.330Z,75.01
2019-01-20T06:16:38.320Z,74.48
2019-01-20T06:17:38.320Z,74.17
2019-01-20T06:18:38.298Z,74.38
2019-01-20T06:19:38.289Z,74.38
2019-01-20T06:20:38.330Z,74.06
2019-01-20T06:21:38.268Z,73.96
2019-01-20T06:22:38.268Z,74.06
2019-01-20T06:23:38.247Z,74.80
2019-01-20T06:24:38.237Z,74.58
2019-01-20T06:25:38.239Z,75.01
2019-01-20T06:26:38.216Z,74.55
2019-01-20T06:27:38.217Z,74.38
2019-01-20T06:28:39.542Z,74.80
2019-01-20T06:29:38.184Z,75.01
2019-01-20T06:30:38.174Z,75.32
2019-01-20T06:31:38.163Z,74.58
2019-01-20T06:32:38.166Z,75.01
2019-01-20T06:33:38.143Z,75.53
2019-01-20T06:34:38.133Z,75.21
2019-01-20T06:35:38.121Z,75.98
2019-01-20T06:36:38.113Z,76.40
2019-01-20T06:37:38.118Z,76.82
2019-01-20T06:38:38.089Z,76.68
2019-01-20T06:39:38.080Z,76.93
2019-01-20T06:40:38.072Z,76.61
2019-01-20T06:41:38.059Z,76.86
2019-01-20T06:42:38.059Z,77.28
2019-01-20T06:43:38.038Z,77.38
2019-01-20T06:44:38.028Z,76.54
2019-01-20T06:45:38.019Z,77.59
2019-01-20T06:46:38.007Z,77.59
2019-01-20T06:47:38.009Z,78.33
2019-01-20T06:48:37.991Z,77.48
2019-01-20T06:49:37.976Z,76.65
2019-01-20T06:50:37.968Z,76.65
2019-01-20T06:51:37.956Z,76.75
2019-01-20T06:52:37.956Z,76.43
2019-01-20T06:53:37.935Z,76.65
2019-01-20T06:54:37.923Z,76.54
2019-01-20T06:55:37.913Z,76.12
2019-01-20T06:56:37.903Z,76.02
2019-01-20T06:57:37.904Z,75.56
2019-01-20T06:58:37.882Z,75.70
2019-01-20T06:59:37.871Z,75.98
2019-01-20T07:00:37.861Z,76.51
2019-01-20T07:01:37.852Z,76.43
2019-01-20T07:02:37.851Z,75.98
2019-01-20T07:03:37.832Z,74.83
2019-01-20T07:04:37.821Z,75.25
2019-01-20T07:05:37.809Z,75.15
2019-01-20T07:06:37.801Z,76.09
2019-01-20T07:07:37.819Z,76.72
2019-01-20T07:08:37.780Z,76.61
2019-01-20T07:09:37.765Z,76.72
2019-01-20T07:10:37.756Z,77.48
2019-01-20T07:11:37.744Z,77.76
2019-01-20T07:12:37.738Z,77.56
2019-01-20T07:13:37.738Z,77.34
2019-01-20T07:14:37.733Z,76.65
2019-01-20T07:15:37.704Z,76.75
2019-01-20T07:16:37.695Z,75.81
2019-01-20T07:17:37.685Z,76.12
2019-01-20T07:18:37.685Z,75.92
2019-01-20T07:19:37.663Z,75.25
2019-01-20T07:20:37.651Z,75.78
2019-01-20T07:21:37.640Z,76.19
2019-01-20T07:22:37.630Z,75.88
2019-01-20T07:23:37.632Z,75.49
2019-01-20T07:24:37.609Z,75.07
2019-01-20T07:25:37.601Z,74.44
2019-01-20T07:26:37.592Z,74.73
2019-01-20T07:27:37.579Z,74.83
2019-01-20T07:28:37.579Z,75.46
2019-01-20T07:29:37.556Z,74.73
2019-01-20T07:30:37.561Z,74.83
2019-01-20T07:31:37.538Z,74.62
2019-01-20T07:32:37.525Z,74.52
2019-01-20T07:33:37.526Z,74.41
2019-01-20T07:34:37.506Z,74.17
2019-01-20T07:35:37.554Z,73.99
2019-01-20T07:36:37.482Z,74.80
2019-01-20T07:37:37.472Z,74.62
2019-01-20T07:38:37.471Z,74.17
2019-01-20T07:39:37.452Z,73.65
2019-01-20T07:40:37.446Z,73.54
2019-01-20T07:41:37.432Z,73.85
2019-01-20T07:42:37.421Z,73.50
2019-01-20T07:43:37.422Z,72.77
2019-01-20T07:44:37.402Z,72.77
2019-01-20T07:45:37.391Z,72.88
2019-01-20T07:46:37.380Z,72.98
2019-01-20T07:47:37.371Z,72.53
2019-01-20T07:48:37.371Z,72.64
2019-01-20T07:49:37.349Z,71.80
2019-01-20T07:50:37.337Z,71.69
2019-01-20T07:51:37.326Z,70.86
2019-01-20T07:52:37.317Z,72.19
2019-01-20T07:53:37.317Z,72.71
2019-01-20T07:54:37.295Z,72.50
2019-01-20T07:55:37.284Z,71.97
2019-01-20T07:56:37.278Z,72.19
2019-01-20T07:57:37.263Z,70.83
2019-01-20T07:58:37.265Z,71.56
2019-01-20T07:59:37.242Z,71.66
2019-01-20T08:00:37.232Z,71.97
2019-01-20T08:01:37.222Z,71.24
2019-01-20T08:02:37.211Z,71.11
2019-01-20T08:03:37.211Z,70.93
2019-01-20T08:04:37.197Z,70.58
2019-01-20T08:05:37.180Z,70.65
2019-01-20T08:06:37.490Z,70.24
2019-01-20T08:07:37.159Z,70.31
2019-01-20T08:08:37.157Z,69.82
2019-01-20T08:09:37.137Z,69.47
2019-01-20T08:10:37.125Z,70.07
2019-01-20T08:11:37.116Z,69.76
2019-01-20T08:12:37.106Z,69.96
2019-01-20T08:13:37.107Z,69.10
2019-01-20T08:14:37.085Z,69.51
2019-01-20T08:15:37.074Z,69.41
2019-01-20T08:16:37.062Z,68.78
2019-01-20T08:17:37.055Z,68.75
2019-01-20T08:18:37.052Z,68.75
2019-01-20T08:19:37.031Z,68.26
2019-01-20T08:20:37.022Z,68.05
2019-01-20T08:21:37.009Z,68.13
2019-01-20T08:22:36.997Z,68.13
2019-01-20T08:23:36.998Z,68.75
2019-01-20T08:24:36.981Z,68.54
2019-01-20T08:25:36.966Z,68.65
2019-01-20T08:26:36.956Z,68.20
2019-01-20T08:27:36.948Z,67.57
2019-01-20T08:28:36.936Z,66.63
2019-01-20T08:29:36.933Z,66.85
2019-01-20T08:30:36.912Z,66.85
2019-01-20T08:31:36.906Z,67.36
2019-01-20T08:32:36.892Z,67.47
2019-01-20T08:33:36.884Z,67.75
2019-01-20T08:34:36.881Z,67.23
2019-01-20T08:35:36.864Z,66.39
2019-01-20T08:36:36.851Z,67.23
2019-01-20T08:37:37.811Z,67.93
2019-01-20T08:38:36.831Z,67.93
2019-01-20T08:39:36.830Z,67.48
2019-01-20T08:40:36.806Z,66.51
2019-01-20T08:41:36.797Z,65.99
2019-01-20T08:42:36.784Z,66.30
2019-01-20T08:43:36.776Z,65.86
2019-01-20T08:44:36.775Z,64.29
2019-01-20T08:45:36.755Z,64.27
2019-01-20T08:46:36.745Z,64.37
2019-01-20T08:47:37.960Z,63.82
2019-01-20T08:48:36.722Z,63.09
2019-01-20T08:49:36.722Z,62.99
2019-01-20T08:50:36.701Z,61.71
2019-01-20T08:51:36.689Z,61.09
2019-01-20T08:52:36.679Z,60.26
2019-01-20T08:53:36.669Z,60.57
2019-01-20T08:54:36.667Z,60.88
2019-01-20T08:55:36.675Z,60.75
2019-01-20T08:56:36.636Z,60.65
2019-01-20T08:57:36.629Z,60.96
2019-01-20T08:58:36.615Z,60.62
2019-01-20T08:59:36.614Z,60.52
2019-01-20T09:00:36.592Z,61.01
2019-01-20T09:01:36.583Z,60.08
2019-01-20T09:02:36.572Z,58.80
2019-01-20T09:03:36.560Z,58.49
2019-01-20T09:04:36.561Z,59.42
2019-01-20T09:05:36.538Z,58.80
2019-01-20T09:06:36.555Z,57.76
2019-01-20T09:07:36.524Z,58.88
2019-01-20T09:08:36.511Z,58.57
2019-01-20T09:09:36.513Z,58.23
2019-01-20T09:10:36.483Z,59.06
2019-01-20T09:11:36.475Z,60.38
2019-01-20T09:12:36.462Z,60.27
2019-01-20T09:13:39.905Z,58.90
2019-01-20T09:14:36.455Z,56.93
2019-01-20T09:15:36.434Z,56.31
2019-01-20T09:16:46.877Z,55.46
2019-01-20T09:17:36.410Z,55.66
2019-01-20T09:18:36.408Z,56.37
2019-01-20T09:19:36.419Z,55.64
2019-01-20T09:20:36.390Z,56.88
2019-01-20T09:21:36.368Z,53.47
2019-01-20T09:22:36.358Z,54.30
2019-01-20T09:23:36.430Z,54.89
2019-01-20T09:24:36.463Z,54.06
2019-01-20T09:25:36.366Z,54.68
2019-01-20T09:26:36.500Z,53.63
2019-01-20T09:27:36.416Z,55.07
2019-01-20T09:28:36.300Z,52.98
2019-01-20T09:29:36.378Z,53.81
2019-01-20T09:30:36.300Z,52.86
2019-01-20T09:31:36.363Z,52.34
2019-01-20T09:32:36.261Z,51.79
2019-01-20T09:33:36.244Z,51.07
2019-01-20T09:34:36.246Z,53.22
2019-01-20T09:35:36.223Z,50.95
2019-01-20T09:36:36.211Z,49.81
2019-01-20T09:37:36.197Z,51.26
2019-01-20T09:38:36.195Z,51.75
2019-01-20T09:39:36.209Z,49.99
2019-01-20T09:40:36.170Z,50.20
2019-01-20T09:41:36.165Z,49.81
2019-01-20T09:42:37.500Z,49.69
2019-01-20T09:43:36.139Z,50.20
2019-01-20T09:44:36.127Z,50.92
2019-01-20T09:45:36.145Z,49.27
2019-01-20T09:46:36.100Z,50.20
2019-01-20T09:47:36.094Z,48.86
2019-01-20T09:48:36.330Z,49.19
2019-01-20T09:49:36.072Z,48.47
2019-01-20T09:50:36.080Z,49.81
2019-01-20T09:51:36.048Z,50.92
2019-01-20T09:52:36.039Z,51.95
2019-01-20T09:53:36.034Z,49.98
2019-01-20T09:54:36.017Z,52.03
2019-01-20T09:55:36.026Z,49.02
2019-01-20T09:56:36.003Z,47.89
2019-01-20T09:57:35.982Z,47.89
2019-01-20T09:58:35.977Z,48.92
2019-01-20T09:59:35.965Z,48.20
2019-01-20T10:00:35.973Z,48.82
2019-01-20T10:01:35.944Z,50.36
2019-01-20T10:02:35.937Z,47.35
2019-01-20T10:03:35.922Z,48.38
2019-01-20T10:04:35.911Z,47.15
2019-01-20T10:05:35.909Z,48.28
2019-01-20T10:06:35.882Z,46.92
2019-01-20T10:07:35.887Z,47.05
2019-01-20T10:08:35.869Z,46.84
2019-01-20T10:09:35.856Z,48.07
2019-01-20T10:10:35.860Z,47.56
2019-01-20T10:11:35.840Z,46.51
2019-01-20T10:12:35.825Z,46.84
2019-01-20T10:13:35.818Z,47.74
2019-01-20T10:14:35.802Z,46.61
2019-01-20T10:15:35.801Z,46.30
2019-01-20T10:16:35.780Z,47.54
2019-01-20T10:17:35.770Z,45.89
2019-01-20T10:18:35.760Z,47.95
2019-01-20T10:19:35.760Z,46.72
2019-01-20T10:20:35.764Z,47.44
2019-01-20T10:21:35.727Z,48.28
2019-01-20T10:22:35.719Z,49.31
2019-01-20T10:23:35.702Z,46.39
2019-01-20T10:24:35.696Z,47.02
2019-01-20T10:25:35.709Z,46.94
2019-01-20T10:26:37.912Z,46.43
2019-01-20T10:27:35.702Z,46.73
2019-01-20T10:28:35.651Z,47.85
2019-01-20T10:29:35.639Z,46.00
2019-01-20T10:30:35.650Z,45.87
2019-01-20T10:31:35.620Z,46.08
2019-01-20T10:32:35.615Z,47.20
2019-01-20T10:33:35.619Z,49.06
2019-01-20T10:34:35.584Z,47.13
2019-01-20T10:35:35.585Z,45.48
2019-01-20T10:36:35.595Z,46.90
2019-01-20T10:37:35.554Z,47.49
2019-01-20T10:38:37.167Z,45.64
2019-01-20T10:39:35.538Z,45.34
2019-01-20T10:40:35.568Z,46.88
2019-01-20T10:41:35.522Z,47.58
2019-01-20T10:42:35.531Z,45.70
2019-01-20T10:43:35.508Z,46.91
2019-01-20T10:44:35.479Z,46.81
2019-01-20T10:45:35.465Z,44.24
2019-01-20T10:46:35.470Z,43.52
2019-01-20T10:47:35.447Z,43.73
2019-01-20T10:48:35.437Z,43.22
2019-01-20T10:49:35.427Z,44.56
2019-01-20T10:50:35.420Z,43.44
2019-01-20T10:51:35.413Z,45.09
2019-01-20T10:52:35.427Z,44.68
2019-01-20T10:53:35.381Z,44.98
2019-01-20T10:54:35.439Z,43.77
2019-01-20T10:55:35.366Z,45.23
2019-01-20T10:56:35.367Z,45.64
2019-01-20T10:57:35.335Z,44.82
2019-01-20T10:58:35.327Z,45.25
2019-01-20T10:59:35.315Z,45.03
2019-01-20T11:00:36.421Z,45.95
2019-01-20T11:01:35.325Z,45.13
2019-01-20T11:02:35.293Z,45.43
2019-01-20T11:03:35.396Z,45.23
2019-01-20T11:04:35.271Z,44.74
2019-01-20T11:05:35.249Z,44.24
2019-01-20T11:06:35.263Z,45.73
2019-01-20T11:07:35.260Z,46.37
2019-01-20T11:08:35.241Z,47.21
2019-01-20T11:09:35.320Z,47.94
2019-01-20T11:10:35.201Z,48.55
2019-01-20T11:11:35.196Z,47.73
2019-01-20T11:12:35.183Z,48.02
2019-01-20T11:13:35.182Z,48.82
2019-01-20T11:14:35.158Z,46.00
2019-01-20T11:15:35.142Z,45.76
2019-01-20T11:16:35.146Z,45.48
2019-01-20T11:17:35.123Z,45.25
2019-01-20T11:18:35.114Z,45.36
2019-01-20T11:19:35.101Z,46.69
2019-01-20T11:20:35.087Z,45.07
2019-01-20T11:21:35.088Z,46.53
2019-01-20T11:22:35.063Z,46.73
2019-01-20T11:23:35.058Z,46.82
2019-01-20T11:24:35.047Z,46.57
2019-01-20T11:25:35.035Z,46.96
2019-01-20T11:26:35.036Z,45.50
2019-01-20T11:27:35.045Z,45.78
2019-01-20T11:28:35.000Z,44.43
2019-01-20T11:29:34.991Z,43.69
2019-01-20T11:30:34.982Z,42.56
2019-01-20T11:31:34.984Z,43.57
2019-01-20T11:32:42.176Z,41.91
2019-01-20T11:33:35.953Z,43.37
2019-01-20T11:34:34.962Z,41.33
2019-01-20T11:35:34.938Z,42.79
2019-01-20T11:36:34.917Z,42.48
2019-01-20T11:37:34.931Z,43.13
2019-01-20T11:38:34.893Z,43.57
2019-01-20T11:39:34.902Z,43.48
2019-01-20T11:40:34.874Z,45.15
2019-01-20T11:41:34.866Z,44.45
2019-01-20T11:42:34.866Z,44.56
2019-01-20T11:43:34.837Z,45.23
2019-01-20T11:44:34.834Z,43.03
2019-01-20T11:45:34.815Z,42.81
2019-01-20T11:46:34.816Z,42.75
2019-01-20T11:47:41.778Z,40.01
2019-01-20T11:48:35.786Z,40.38
2019-01-20T11:49:34.782Z,39.51
2019-01-20T11:50:34.769Z,39.06
2019-01-20T11:51:34.753Z,38.85
2019-01-20T11:52:34.753Z,37.38
2019-01-20T11:53:34.730Z,36.60
2019-01-20T11:54:34.715Z,33.80
2019-01-20T11:55:34.704Z,32.67
2019-01-20T11:56:34.693Z,31.34
2019-01-20T11:57:34.703Z,31.03
2019-01-20T11:58:34.679Z,31.66
2019-01-20T11:59:34.661Z,32.38
2019-01-20T12:00:34.649Z,32.38
2019-01-20T12:01:34.640Z,31.98
2019-01-20T12:02:34.645Z,34.04
2019-01-20T12:03:34.619Z,35.21
2019-01-20T12:04:34.620Z,33.51
2019-01-20T12:05:34.601Z,33.49
2019-01-20T12:06:34.587Z,33.68
2019-01-20T12:07:34.603Z,34.99
2019-01-20T12:08:34.570Z,32.70
2019-01-20T12:09:34.560Z,31.76
2019-01-20T12:10:34.616Z,30.10
2019-01-20T12:11:34.533Z,30.10
2019-01-20T12:12:34.536Z,29.39
2019-01-20T12:13:34.517Z,30.21
2019-01-20T12:14:34.501Z,29.90
2019-01-20T12:15:34.494Z,30.79
2019-01-20T12:16:34.478Z,29.83
2019-01-20T12:17:34.481Z,28.17
2019-01-20T12:18:34.457Z,29.76
2019-01-20T12:19:34.454Z,28.31
2019-01-20T12:20:34.461Z,26.79
2019-01-20T12:21:34.442Z,29.21
2019-01-20T12:22:34.428Z,26.08
2019-01-20T12:23:34.404Z,28.51
2019-01-20T12:24:34.397Z,28.01
2019-01-20T12:25:34.392Z,28.42
2019-01-20T12:26:34.373Z,27.73
2019-01-20T12:27:34.375Z,28.55
2019-01-20T12:28:34.354Z,28.48
2019-01-20T12:29:34.344Z,28.70
2019-01-20T12:30:34.331Z,29.63
2019-01-20T12:31:34.320Z,30.05
2019-01-20T12:32:34.326Z,30.25
2019-01-20T12:33:34.301Z,29.35
2019-01-20T12:34:34.288Z,29.17
2019-01-20T12:35:34.278Z,29.47
2019-01-20T12:36:34.272Z,29.89
2019-01-20T12:37:34.273Z,29.38
2019-01-20T12:38:34.252Z,28.44
2019-01-20T12:39:34.238Z,28.20
2019-01-20T12:40:34.229Z,26.54
2019-01-20T12:41:34.219Z,25.73
2019-01-20T12:42:34.238Z,26.13
2019-01-20T12:43:34.196Z,26.45
2019-01-20T12:44:34.192Z,27.45
2019-01-20T12:45:34.178Z,27.56
2019-01-20T12:46:34.162Z,27.03
2019-01-20T12:47:34.155Z,26.10
2019-01-20T12:48:34.159Z,26.09
2019-01-20T12:49:34.181Z,26.20
2019-01-20T12:50:34.126Z,26.50
2019-01-20T12:51:34.116Z,26.81
2019-01-20T12:52:34.102Z,26.59